Aviation Digital Data Service (ADDS)

Output produced by METARs form (1556 UTC 26 April 2019)
found at http://www.aviationweather.gov/metar/data/
 
TAF UDYZ 261107Z 2612/2712 06006KT 9999 FEW040 
     TEMPO 2612/2618 VRB16KT FEW040CB